Time;durP1;ratioP1;P1;durP2;ratioP2;P2;SDS_P1;SDS_P2;PMS_P1;PMS_P2;Temp;Humidity;BMP_temperature;BMP_pressure;BME280_temperature;BME280_humidity;BME280_pressure;Samples;Min_cycle;Max_cycle;Signal;HPM_P1;HPM_P2
2023/01/31 00:00:42;;;;;;;;;;;;;;;17.44;40.05;100339.66;4975859;28;1084;-56
2023/01/31 00:03:07;;;;;;;;;;;;;;;16.67;41.36;100336.72;4968744;28;1082;-55
2023/01/31 00:05:32;;;;;;;;;;;;;;;15.98;42.98;100337.34;4966021;28;1063;-55
2023/01/31 00:07:59;;;;;;;;;;;;;;;15.64;44.04;100342.63;4978380;28;1033;-56
2023/01/31 00:10:25;;;;;;;;;;;;;;;16.52;42.10;100343.94;4979202;28;1128;-54
2023/01/31 00:12:50;;;;;;;;;;;;;;;17.45;40.00;100346.81;4969400;28;1181;-52
2023/01/31 00:15:17;;;;;;;;;;;;;;;16.35;42.34;100336.06;4974911;28;1070;-53
2023/01/31 00:17:42;;;;;;;;;;;;;;;15.79;43.31;100334.38;4969494;28;1987;-52
2023/01/31 00:20:08;;;;;;;;;;;;;;;15.48;43.99;100334.44;4974626;28;1253;-55
2023/01/31 00:22:34;;;;;;;;;;;;;;;16.15;42.82;100331.50;4978366;28;1026;-56
2023/01/31 00:24:59;;;;;;;;;;;;;;;17.44;39.88;100330.59;4965495;28;1189;-54
2023/01/31 00:27:24;;;;;;;;;;;;;;;16.69;41.26;100329.84;4978425;28;1172;-52
2023/01/31 00:29:51;;;;;;;;;;;;;;;15.93;43.23;100322.84;4961142;28;1141;-54
2023/01/31 00:32:16;;;;;;;;;;;;;;;15.57;43.97;100326.44;4969533;28;1082;-54
2023/01/31 00:34:42;;;;;;;;;;;;;;;16.20;42.77;100330.66;4974632;28;1070;-53
2023/01/31 00:37:07;;;;;;;;;;;;;;;17.47;39.75;100321.78;4978488;28;1911;-56
2023/01/31 00:39:33;;;;;;;;;;;;;;;16.36;42.08;100328.66;4978533;28;1101;-51
2023/01/31 00:41:58;;;;;;;;;;;;;;;15.79;43.55;100319.84;4969425;28;1305;-53
2023/01/31 00:44:24;;;;;;;;;;;;;;;15.48;44.06;100317.19;4962663;28;1091;-54
2023/01/31 00:46:49;;;;;;;;;;;;;;;16.12;42.94;100314.78;4978277;28;1101;-57
2023/01/31 00:49:14;;;;;;;;;;;;;;;17.42;39.98;100308.09;4968043;28;1136;-56
2023/01/31 00:51:40;;;;;;;;;;;;;;;16.64;41.35;100307.91;4960826;28;1525;-54
2023/01/31 00:54:05;;;;;;;;;;;;;;;15.92;43.21;100300.06;4964710;28;1066;-57
2023/01/31 00:56:31;;;;;;;;;;;;;;;15.53;44.06;100293.31;4952128;29;1966;-55
2023/01/31 00:58:56;;;;;;;;;;;;;;;16.10;42.76;100295.06;4956049;28;1277;-52
2023/01/31 01:01:26;;;;;;;;;;;;;;;17.42;39.95;100277.88;4978017;28;1108;-56
2023/01/31 01:03:51;;;;;;;;;;;;;;;16.45;42.01;100284.97;4960588;28;1283;-53
2023/01/31 01:06:17;;;;;;;;;;;;;;;15.77;43.30;100281.72;4992616;28;1103;-56
2023/01/31 01:08:43;;;;;;;;;;;;;;;15.66;43.90;100282.88;4947403;28;1193;-51
2023/01/31 01:11:10;;;;;;;;;;;;;;;17.26;40.33;100279.94;4977749;28;1073;-51
2023/01/31 01:13:35;;;;;;;;;;;;;;;16.79;41.20;100284.19;4964984;28;1122;-53
2023/01/31 01:16:04;;;;;;;;;;;;;;;15.98;42.93;100274.28;4977827;28;1905;-50
2023/01/31 01:18:30;;;;;;;;;;;;;;;15.60;43.74;100278.50;4947484;28;1324;-55
2023/01/31 01:20:57;;;;;;;;;;;;;;;16.11;42.68;100278.31;4977298;28;874;-56
2023/01/31 01:23:22;;;;;;;;;;;;;;;17.47;39.81;100277.00;4979621;28;1277;-55
2023/01/31 01:25:48;;;;;;;;;;;;;;;16.46;41.67;100278.41;4977267;28;1061;-53
2023/01/31 01:28:13;;;;;;;;;;;;;;;15.84;43.22;100273.25;4976053;28;1109;-56
2023/01/31 01:30:39;;;;;;;;;;;;;;;15.52;43.85;100274.41;4977248;28;1081;-56
2023/01/31 01:33:04;;;;;;;;;;;;;;;16.91;40.96;100271.75;4977182;28;998;-52
2023/01/31 01:35:30;;;;;;;;;;;;;;;17.47;39.60;100272.28;4968597;28;1910;-55
2023/01/31 01:37:55;;;;;;;;;;;;;;;16.24;42.37;100274.13;4972764;28;1050;-53
2023/01/31 01:40:21;;;;;;;;;;;;;;;15.78;43.61;100255.97;4977429;28;1045;-55
2023/01/31 01:42:46;;;;;;;;;;;;;;;16.17;42.75;100259.91;4962927;28;1204;-50
2023/01/31 01:45:15;;;;;;;;;;;;;;;17.54;39.56;100261.75;4967051;28;968;-55
2023/01/31 01:47:54;;;;;;;;;;;;;;;16.49;41.72;100253.94;4979362;28;1378;-55
2023/01/31 01:50:22;;;;;;;;;;;;;;;15.84;43.33;100251.31;4966316;28;1149;-56
2023/01/31 01:52:52;;;;;;;;;;;;;;;15.54;43.97;100242.06;4974146;28;1636;-51
2023/01/31 01:55:34;;;;;;;;;;;;;;;15.30;44.59;100239.94;4992221;28;1096;-53
2023/01/31 01:58:21;;;;;;;;;;;;;;;16.85;41.18;100245.41;4969452;28;977;-53
2023/01/31 02:00:47;;;;;;;;;;;;;;;17.18;40.29;100242.94;4972992;28;1567;-53
2023/01/31 02:03:12;;;;;;;;;;;;;;;16.10;42.72;100240.19;4967482;28;1145;-53
2023/01/31 02:05:48;;;;;;;;;;;;;;;15.71;43.49;100242.56;4953471;29;1154;-54
2023/01/31 02:08:14;;;;;;;;;;;;;;;15.35;44.08;100245.41;4951745;28;1333;-57
2023/01/31 02:10:43;;;;;;;;;;;;;;;16.82;41.25;100253.41;4971669;28;1021;-55
2023/01/31 02:13:08;;;;;;;;;;;;;;;17.65;39.39;100254.22;4975831;28;1175;-57
2023/01/31 02:15:34;;;;;;;;;;;;;;;16.42;41.79;100250.69;4986239;28;1983;-52
2023/01/31 02:17:59;;;;;;;;;;;;;;;15.88;43.19;100258.69;4969396;28;1474;-54
2023/01/31 02:20:43;;;;;;;;;;;;;;;15.55;43.82;100254.69;4958698;28;1256;-55
2023/01/31 02:23:09;;;;;;;;;;;;;;;15.87;43.40;100253.50;4977116;28;1058;-52
2023/01/31 02:25:34;;;;;;;;;;;;;;;17.31;40.09;100257.09;4959435;28;1124;-54
2023/01/31 02:28:18;;;;;;;;;;;;;;;16.51;41.67;100256.38;4946743;28;1256;-53
2023/01/31 02:31:02;;;;;;;;;;;;;;;15.78;43.23;100250.50;4959121;28;1117;-53
2023/01/31 02:33:34;;;;;;;;;;;;;;;15.44;44.16;100250.34;4991543;28;1155;-53
2023/01/31 02:36:18;;;;;;;;;;;;;;;17.00;40.52;100252.72;4974983;28;1902;-53
2023/01/31 02:38:57;;;;;;;;;;;;;;;17.15;40.27;100245.44;4951922;28;1150;-57
2023/01/31 02:41:28;;;;;;;;;;;;;;;16.08;42.52;100240.50;4980286;28;1057;-55
2023/01/31 02:46:46;;;;;;;;;;;;;;;16.00;43.12;100233.66;4956608;28;1296;-61
2023/01/31 02:49:11;;;;;;;;;;;;;;;17.39;39.76;100238.03;4977903;28;1018;-54
2023/01/31 02:51:40;;;;;;;;;;;;;;;16.84;40.58;100243.75;4961063;29;1014;-56
2023/01/31 02:54:20;;;;;;;;;;;;;;;16.01;42.71;100248.22;4930120;28;1308;-54
2023/01/31 02:56:45;;;;;;;;;;;;;;;15.56;43.89;100243.44;4984773;28;1974;-56
2023/01/31 02:59:18;;;;;;;;;;;;;;;15.77;43.27;100250.75;4959983;28;1330;-49
2023/01/31 03:01:54;;;;;;;;;;;;;;;17.35;40.07;100258.97;4977954;28;2103;-55
2023/01/31 03:04:19;;;;;;;;;;;;;;;16.66;41.06;100253.53;4965650;28;1217;-55
2023/01/31 03:06:53;;;;;;;;;;;;;;;15.96;42.54;100245.50;4978930;28;1155;-52
2023/01/31 03:09:37;;;;;;;;;;;;;;;15.53;43.95;100241.25;4979402;28;841;-52
2023/01/31 03:12:10;;;;;;;;;;;;;;;16.36;42.20;100243.59;4949646;28;1360;-53
2023/01/31 03:14:41;;;;;;;;;;;;;;;17.58;39.28;100242.75;4962538;28;1287;-54
2023/01/31 03:17:31;;;;;;;;;;;;;;;16.47;41.81;100245.19;4978600;28;1971;-54
2023/01/31 03:20:05;;;;;;;;;;;;;;;15.79;43.16;100240.34;4961783;28;1571;-54
2023/01/31 03:22:34;;;;;;;;;;;;;;;15.46;44.09;100237.16;4953812;29;1117;-55
2023/01/31 03:25:01;;;;;;;;;;;;;;;16.84;41.13;100242.94;4973774;28;1263;-54
2023/01/31 03:27:27;;;;;;;;;;;;;;;17.20;39.93;100235.22;4969867;28;1181;-54
2023/01/31 03:29:57;;;;;;;;;;;;;;;16.09;42.51;100233.91;4973660;28;2085;-52
2023/01/31 03:32:25;;;;;;;;;;;;;;;15.66;43.31;100230.81;4994653;28;1276;-52
2023/01/31 03:34:51;;;;;;;;;;;;;;;15.39;43.83;100227.31;4993755;28;930;-53
2023/01/31 03:37:22;;;;;;;;;;;;;;;16.84;41.00;100238.28;4994256;28;2003;-55
2023/01/31 03:40:03;;;;;;;;;;;;;;;17.61;39.11;100226.50;4973796;28;1291;-52
2023/01/31 03:42:49;;;;;;;;;;;;;;;16.29;41.91;100232.13;4987153;28;1351;-53
2023/01/31 03:45:21;;;;;;;;;;;;;;;15.74;43.06;100236.50;4978784;28;1318;-56
2023/01/31 03:47:47;;;;;;;;;;;;;;;15.54;43.70;100236.59;4981318;28;1204;-55
2023/01/31 03:50:46;;;;;;;;;;;;;;;17.09;40.53;100234.50;4977561;28;1175;-54
2023/01/31 03:53:25;;;;;;;;;;;;;;;16.50;41.32;100241.03;4928109;28;1355;-55
2023/01/31 03:55:56;;;;;;;;;;;;;;;15.83;43.02;100235.97;4977197;28;1973;-52
2023/01/31 03:58:22;;;;;;;;;;;;;;;15.47;43.79;100238.81;4977129;28;1174;-52
2023/01/31 04:00:48;;;;;;;;;;;;;;;16.82;41.11;100223.22;4974080;28;1049;-55
2023/01/31 04:03:15;;;;;;;;;;;;;;;16.97;40.57;100231.34;4942499;29;1188;-54
2023/01/31 04:05:40;;;;;;;;;;;;;;;16.01;42.49;100229.81;4958306;28;1085;-51
2023/01/31 04:08:06;;;;;;;;;;;;;;;15.62;43.49;100238.75;4968055;28;1356;-58
2023/01/31 04:10:32;;;;;;;;;;;;;;;16.58;41.46;100234.94;4957960;28;1157;-55
2023/01/31 04:12:58;;;;;;;;;;;;;;;17.57;39.15;100235.63;4969207;28;1022;-54
2023/01/31 04:15:23;;;;;;;;;;;;;;;16.37;41.66;100240.56;4959089;28;1074;-56
2023/01/31 04:17:49;;;;;;;;;;;;;;;15.80;43.00;100231.84;4973343;28;1993;-54
2023/01/31 04:20:15;;;;;;;;;;;;;;;15.47;43.99;100242.34;4978520;28;1221;-56
2023/01/31 04:22:40;;;;;;;;;;;;;;;16.57;41.54;100241.53;4976863;28;1014;-60
2023/01/31 04:25:06;;;;;;;;;;;;;;;17.56;39.30;100245.81;4964710;28;1233;-60
2023/01/31 04:27:32;;;;;;;;;;;;;;;16.31;41.90;100258.16;4967564;28;1038;-59
2023/01/31 04:29:57;;;;;;;;;;;;;;;15.81;43.08;100260.06;4960252;28;1580;-59
2023/01/31 04:32:22;;;;;;;;;;;;;;;15.52;43.50;100257.97;4978660;28;1037;-62
2023/01/31 04:34:48;;;;;;;;;;;;;;;17.12;40.41;100254.25;4965117;28;1121;-60
2023/01/31 04:37:13;;;;;;;;;;;;;;;16.83;40.52;100257.78;4978338;28;1984;-59
2023/01/31 04:39:39;;;;;;;;;;;;;;;15.94;42.48;100256.75;4977936;28;1037;-58
2023/01/31 04:42:04;;;;;;;;;;;;;;;15.57;43.67;100255.19;4977767;28;1022;-57
2023/01/31 04:44:29;;;;;;;;;;;;;;;16.14;42.42;100264.03;4976220;28;1204;-59
2023/01/31 04:46:55;;;;;;;;;;;;;;;17.44;39.59;100268.19;4966304;28;939;-55
2023/01/31 04:49:20;;;;;;;;;;;;;;;16.31;41.89;100280.09;4965119;28;1209;-55
2023/01/31 04:51:46;;;;;;;;;;;;;;;15.76;43.04;100280.09;4978033;28;1113;-60
2023/01/31 04:54:11;;;;;;;;;;;;;;;15.48;43.85;100285.09;4965378;28;1180;-60
2023/01/31 04:56:36;;;;;;;;;;;;;;;16.54;41.40;100289.56;4968260;28;1977;-57
2023/01/31 04:59:02;;;;;;;;;;;;;;;17.49;39.24;100288.50;4970755;28;1086;-61
2023/01/31 05:01:28;;;;;;;;;;;;;;;16.31;41.60;100282.84;4958136;28;1306;-61
2023/01/31 05:03:53;;;;;;;;;;;;;;;15.70;43.21;100290.25;4958068;28;1077;-59
2023/01/31 05:06:19;;;;;;;;;;;;;;;15.46;43.72;100287.31;4958260;28;1208;-60
2023/01/31 05:08:44;;;;;;;;;;;;;;;17.01;40.33;100287.34;4957789;28;1179;-57
2023/01/31 05:11:09;;;;;;;;;;;;;;;17.54;39.21;100285.69;4963015;28;961;-60
2023/01/31 05:13:38;;;;;;;;;;;;;;;16.32;41.86;100273.53;4957770;28;1085;-56
2023/01/31 05:16:07;;;;;;;;;;;;;;;15.78;42.86;100282.53;4925117;29;1979;-53
2023/01/31 05:18:34;;;;;;;;;;;;;;;15.50;43.63;100285.66;4957356;28;1177;-55
2023/01/31 05:20:59;;;;;;;;;;;;;;;15.64;43.53;100283.16;4957688;28;1130;-56
2023/01/31 05:23:25;;;;;;;;;;;;;;;17.17;40.03;100285.25;4957489;28;1022;-52
2023/01/31 05:25:50;;;;;;;;;;;;;;;17.04;39.96;100292.25;4957456;28;2698;-57
2023/01/31 05:28:16;;;;;;;;;;;;;;;16.07;42.05;100291.78;4970557;28;1015;-55
2023/01/31 05:30:41;;;;;;;;;;;;;;;15.64;43.33;100305.09;4957763;28;1019;-54
2023/01/31 05:33:07;;;;;;;;;;;;;;;15.43;43.89;100304.31;4957990;28;1149;-53
2023/01/31 05:35:32;;;;;;;;;;;;;;;16.84;40.69;100314.34;4957329;28;923;-57
2023/01/31 05:37:58;;;;;;;;;;;;;;;17.71;38.78;100305.31;4957439;28;1914;-56
2023/01/31 05:40:23;;;;;;;;;;;;;;;16.52;41.06;100308.28;4957692;28;1038;-55
2023/01/31 05:42:49;;;;;;;;;;;;;;;15.89;42.54;100317.06;4958857;28;1057;-57
2023/01/31 05:45:15;;;;;;;;;;;;;;;15.60;43.41;100309.47;4982679;28;1173;-52
2023/01/31 05:47:40;;;;;;;;;;;;;;;16.51;41.60;100311.28;4958329;28;952;-57
2023/01/31 05:50:06;;;;;;;;;;;;;;;17.45;39.24;100313.81;4957811;28;1153;-53
2023/01/31 05:52:31;;;;;;;;;;;;;;;16.31;41.48;100309.47;4957762;28;1102;-49
2023/01/31 05:54:57;;;;;;;;;;;;;;;15.77;42.75;100309.16;4957301;28;2503;-54
2023/01/31 05:57:22;;;;;;;;;;;;;;;15.49;43.48;100305.13;4957811;28;1915;-54
2023/01/31 05:59:48;;;;;;;;;;;;;;;16.64;41.00;100307.91;4965455;28;1007;-57
2023/01/31 06:02:13;;;;;;;;;;;;;;;17.44;39.39;100312.19;4957375;28;1240;-57
2023/01/31 06:04:39;;;;;;;;;;;;;;;16.30;41.68;100311.41;4957743;28;1114;-52
2023/01/31 06:07:04;;;;;;;;;;;;;;;15.73;43.08;100311.63;4956974;28;1090;-58
2023/01/31 06:09:29;;;;;;;;;;;;;;;15.49;43.69;100313.34;4940271;29;1030;-55
2023/01/31 06:11:55;;;;;;;;;;;;;;;16.39;41.73;100326.16;4943183;28;1020;-56
2023/01/31 06:14:20;;;;;;;;;;;;;;;17.53;39.21;100323.38;4966737;28;1045;-50
2023/01/31 06:16:46;;;;;;;;;;;;;;;16.51;41.06;100327.75;4967071;28;1976;-53
2023/01/31 06:19:11;;;;;;;;;;;;;;;16.46;41.31;100319.56;4967632;28;1085;-55
2023/01/31 06:21:37;;;;;;;;;;;;;;;16.21;41.86;100321.31;4960570;29;1261;-52
2023/01/31 06:24:02;;;;;;;;;;;;;;;15.62;43.22;100329.19;4960203;28;1972;-48
2023/01/31 06:26:28;;;;;;;;;;;;;;;15.31;43.77;100333.91;4960654;29;1363;-53
2023/01/31 06:28:54;;;;;;;;;;;;;;;15.04;44.33;100335.84;4961062;28;1122;-52
2023/01/31 06:31:19;;;;;;;;;;;;;;;16.21;41.83;100338.59;4957333;28;1160;-52
2023/01/31 06:33:45;;;;;;;;;;;;;;;15.35;43.68;100337.75;4973144;28;1212;-59
2023/01/31 06:36:10;;;;;;;;;;;;;;;15.86;43.04;100339.56;4973481;28;1983;-51
2023/01/31 06:38:36;;;;;;;;;;;;;;;15.88;42.48;100335.47;4967570;28;1134;-56
2023/01/31 06:41:01;;;;;;;;;;;;;;;16.24;42.22;100339.97;4967255;28;1121;-55
2023/01/31 06:43:26;;;;;;;;;;;;;;;17.64;39.00;100337.81;4969904;28;1055;-54
2023/01/31 06:45:52;;;;;;;;;;;;;;;16.11;42.28;100343.34;4961023;29;1225;-57
2023/01/31 06:48:18;;;;;;;;;;;;;;;16.25;41.87;100347.91;4963175;28;959;-55
2023/01/31 06:50:44;;;;;;;;;;;;;;;16.63;40.82;100355.66;4973116;28;1118;-52
2023/01/31 06:53:09;;;;;;;;;;;;;;;15.65;42.96;100356.03;4967569;28;1098;-56
2023/01/31 06:55:34;;;;;;;;;;;;;;;15.47;43.45;100368.41;4976905;28;2083;-54
2023/01/31 06:58:00;;;;;;;;;;;;;;;16.46;41.38;100357.97;4979497;28;1991;-52
2023/01/31 07:00:25;;;;;;;;;;;;;;;15.61;43.20;100356.88;4979150;28;954;-51
2023/01/31 07:02:51;;;;;;;;;;;;;;;15.32;43.30;100361.03;4980144;28;1090;-54
2023/01/31 07:05:17;;;;;;;;;;;;;;;16.06;42.08;100361.44;4966119;28;1090;-52
2023/01/31 07:07:43;;;;;;;;;;;;;;;15.34;43.81;100366.25;4960047;29;1170;-57
2023/01/31 07:10:08;;;;;;;;;;;;;;;17.22;39.79;100372.31;4960065;29;1293;-56
2023/01/31 07:12:34;;;;;;;;;;;;;;;16.10;42.11;100367.19;4954823;28;899;-54
2023/01/31 07:14:59;;;;;;;;;;;;;;;15.55;43.01;100378.00;4978655;28;1025;-56
2023/01/31 07:17:25;;;;;;;;;;;;;;;16.21;42.08;100371.53;4979528;28;1981;-54
2023/01/31 07:19:50;;;;;;;;;;;;;;;15.70;43.16;100361.53;4979318;28;1277;-46
2023/01/31 07:22:16;;;;;;;;;;;;;;;16.44;41.79;100371.97;4979500;28;1062;-56
2023/01/31 07:24:41;;;;;;;;;;;;;;;16.91;40.32;100373.38;4973996;28;1853;-53
2023/01/31 07:27:07;;;;;;;;;;;;;;;15.85;42.60;100373.56;4979059;28;1061;-54
2023/01/31 07:29:32;;;;;;;;;;;;;;;16.80;40.83;100371.75;4974329;28;1053;-54
2023/01/31 07:31:57;;;;;;;;;;;;;;;16.18;42.11;100368.53;4971369;28;1082;-57
2023/01/31 07:34:23;;;;;;;;;;;;;;;17.16;40.20;100367.97;4966356;28;1122;-54
2023/01/31 07:36:49;;;;;;;;;;;;;;;17.78;38.58;100360.78;4978226;28;1961;-52
2023/01/31 07:39:14;;;;;;;;;;;;;;;16.42;41.54;100364.03;4974143;28;1156;-58
2023/01/31 07:41:40;;;;;;;;;;;;;;;15.84;42.86;100366.47;4968267;28;1106;-54
2023/01/31 07:44:07;;;;;;;;;;;;;;;16.34;41.89;100364.63;4943636;29;1313;-54
2023/01/31 07:46:33;;;;;;;;;;;;;;;15.72;43.20;100367.56;4963124;28;1169;-52
2023/01/31 07:48:59;;;;;;;;;;;;;;;15.54;43.28;100377.19;4960493;28;987;-53
2023/01/31 07:51:25;;;;;;;;;;;;;;;17.02;40.25;100371.34;4962159;28;1117;-55
2023/01/31 07:53:50;;;;;;;;;;;;;;;15.87;42.82;100363.16;4970045;28;1958;-54
2023/01/31 07:56:16;;;;;;;;;;;;;;;17.73;38.84;100368.25;4971849;28;1956;-53
2023/01/31 07:58:42;;;;;;;;;;;;;;;16.97;40.69;100362.34;4968585;28;1137;-62
2023/01/31 08:03:58;;;;;;;;;;;;;;;15.75;42.87;100360.69;4969953;28;958;-55
2023/01/31 08:06:24;;;;;;;;;;;;;;;17.19;40.22;100370.94;4960879;28;1041;-58
2023/01/31 08:08:49;;;;;;;;;;;;;;;16.03;42.47;100366.66;4978047;28;1006;-58
2023/01/31 08:11:14;;;;;;;;;;;;;;;17.17;40.55;100364.13;4965424;28;1161;-54
2023/01/31 08:13:40;;;;;;;;;;;;;;;17.19;39.88;100368.19;4970512;28;1066;-58
2023/01/31 08:16:06;;;;;;;;;;;;;;;16.13;42.16;100355.66;4960243;28;1894;-61
2023/01/31 08:18:32;;;;;;;;;;;;;;;15.78;42.98;100362.03;4969871;28;1236;-58
2023/01/31 08:20:57;;;;;;;;;;;;;;;17.02;40.42;100376.03;4973492;28;1111;-59
2023/01/31 08:23:23;;;;;;;;;;;;;;;15.94;42.54;100377.41;4977868;28;1176;-61
2023/01/31 08:25:48;;;;;;;;;;;;;;;16.11;42.80;100381.72;4972489;28;2209;-58
2023/01/31 08:28:14;;;;;;;;;;;;;;;16.41;41.51;100386.25;4966349;28;1388;-58
2023/01/31 08:30:40;;;;;;;;;;;;;;;15.72;43.14;100388.66;4977529;28;998;-60
2023/01/31 08:33:06;;;;;;;;;;;;;;;16.98;40.57;100389.50;4977979;28;1025;-61
2023/01/31 08:35:31;;;;;;;;;;;;;;;15.79;43.09;100385.63;4975997;28;1069;-63
2023/01/31 08:37:56;;;;;;;;;;;;;;;15.85;43.05;100390.03;4969476;28;1911;-61
2023/01/31 08:40:22;;;;;;;;;;;;;;;16.45;41.62;100384.59;4959814;28;1141;-63
2023/01/31 08:42:54;;;;;;;;;;;;;;;15.74;43.22;100387.28;4976243;28;1104;-65
2023/01/31 08:45:20;;;;;;;;;;;;;;;17.73;38.96;100387.50;4973780;28;1079;-60
2023/01/31 08:47:45;;;;;;;;;;;;;;;16.28;42.10;100386.88;4977075;28;872;-61
2023/01/31 08:50:11;;;;;;;;;;;;;;;15.76;42.79;100389.75;4971676;28;1017;-63
2023/01/31 08:52:36;;;;;;;;;;;;;;;16.02;42.61;100386.94;4967407;28;1117;-61
2023/01/31 08:55:02;;;;;;;;;;;;;;;16.05;42.52;100398.19;4966986;28;2071;-63
2023/01/31 08:57:28;;;;;;;;;;;;;;;17.03;40.52;100394.16;4976843;28;1985;-61
2023/01/31 08:59:54;;;;;;;;;;;;;;;17.84;38.54;100394.53;4968262;28;1129;-63
2023/01/31 09:02:20;;;;;;;;;;;;;;;16.40;41.63;100382.69;4973869;28;1185;-62
2023/01/31 09:04:45;;;;;;;;;;;;;;;15.89;42.79;100386.47;4968173;28;1106;-63
2023/01/31 09:07:10;;;;;;;;;;;;;;;16.84;41.20;100396.72;4973578;28;1189;-64
2023/01/31 09:09:36;;;;;;;;;;;;;;;16.01;42.74;100399.84;4977067;28;1005;-60
2023/01/31 09:12:03;;;;;;;;;;;;;;;15.71;43.02;100395.22;4964321;28;1133;-65
2023/01/31 09:14:30;;;;;;;;;;;;;;;17.03;40.71;100400.47;4967908;28;1138;-64
2023/01/31 09:16:55;;;;;;;;;;;;;;;15.90;42.77;100392.75;4960535;28;1906;-62
2023/01/31 09:19:22;;;;;;;;;;;;;;;15.58;43.29;100393.88;4976531;28;1081;-65
2023/01/31 09:21:47;;;;;;;;;;;;;;;16.76;41.42;100395.41;4977080;28;1116;-65
2023/01/31 09:24:13;;;;;;;;;;;;;;;15.97;42.51;100407.00;4967301;28;1845;-63
2023/01/31 09:26:38;;;;;;;;;;;;;;;17.58;39.38;100397.53;4973966;28;1216;-65
2023/01/31 09:29:04;;;;;;;;;;;;;;;17.71;39.12;100393.31;4966426;28;1130;-63
2023/01/31 09:31:30;;;;;;;;;;;;;;;16.37;42.02;100388.75;4974363;28;1102;-65
2023/01/31 09:33:55;;;;;;;;;;;;;;;15.94;42.61;100396.59;4977207;28;1041;-63
2023/01/31 09:36:21;;;;;;;;;;;;;;;17.04;40.75;100393.03;4972969;28;1979;-63
2023/01/31 09:38:46;;;;;;;;;;;;;;;16.07;42.56;100400.66;4967226;28;1034;-61
2023/01/31 09:41:23;;;;;;;;;;;;;;;17.80;39.23;100398.97;4976482;28;1014;-66
2023/01/31 09:43:53;;;;;;;;;;;;;;;17.01;40.44;100394.47;4989244;28;1149;-63
2023/01/31 09:46:18;;;;;;;;;;;;;;;16.24;42.15;100389.34;4976989;28;1029;-64
2023/01/31 09:48:44;;;;;;;;;;;;;;;16.94;40.90;100396.69;4990965;28;1036;-66
2023/01/31 09:51:10;;;;;;;;;;;;;;;16.18;42.11;100401.44;4976557;28;1116;-64
2023/01/31 09:53:36;;;;;;;;;;;;;;;15.80;42.75;100392.78;4966359;28;1991;-64
2023/01/31 09:56:20;;;;;;;;;;;;;;;16.01;42.76;100390.81;4972458;28;1907;-63
2023/01/31 09:59:09;;;;;;;;;;;;;;;16.07;42.75;100396.00;4969989;28;1098;-64
2023/01/31 10:01:42;;;;;;;;;;;;;;;16.73;41.42;100399.56;4960880;28;1025;-63
2023/01/31 10:04:13;;;;;;;;;;;;;;;16.96;40.85;100391.75;4954148;28;1007;-64
2023/01/31 10:06:41;;;;;;;;;;;;;;;16.15;42.45;100397.34;4991521;28;1037;-65
2023/01/31 10:09:09;;;;;;;;;;;;;;;18.10;38.42;100402.53;4963287;28;1149;-62
2023/01/31 10:11:37;;;;;;;;;;;;;;;16.70;41.31;100400.09;4975150;28;1103;-62
2023/01/31 10:14:13;;;;;;;;;;;;;;;16.29;42.48;100399.50;4970587;28;897;-58
2023/01/31 10:16:44;;;;;;;;;;;;;;;16.81;40.99;100397.31;4939076;29;1963;-61
2023/01/31 10:19:19;;;;;;;;;;;;;;;15.97;42.59;100396.03;4939735;29;1253;-60
2023/01/31 10:21:45;;;;;;;;;;;;;;;17.85;39.01;100396.19;4939575;29;1166;-61
2023/01/31 10:24:28;;;;;;;;;;;;;;;16.43;42.07;100395.84;4954061;29;1825;-59
2023/01/31 10:26:54;;;;;;;;;;;;;;;16.04;42.62;100380.09;4985480;28;1077;-59
2023/01/31 10:29:27;;;;;;;;;;;;;;;15.77;43.08;100379.59;4968798;28;1177;-64
2023/01/31 10:32:19;;;;;;;;;;;;;;;16.63;41.57;100380.38;4971566;28;979;-61
2023/01/31 10:34:46;;;;;;;;;;;;;;;15.77;43.10;100371.38;4948240;28;1229;-64
2023/01/31 10:37:30;;;;;;;;;;;;;;;17.40;40.00;100374.34;4962098;28;1977;-61
2023/01/31 10:39:58;;;;;;;;;;;;;;;16.11;42.17;100373.50;4956610;28;1115;-63
2023/01/31 10:42:32;;;;;;;;;;;;;;;15.76;42.78;100377.97;4939900;29;1173;-58
2023/01/31 10:45:02;;;;;;;;;;;;;;;17.01;40.65;100371.66;4959786;28;1157;-59
2023/01/31 10:47:33;;;;;;;;;;;;;;;15.85;42.85;100362.59;4957515;28;1097;-61
2023/01/31 10:49:58;;;;;;;;;;;;;;;17.73;39.34;100363.56;4968990;28;1141;-60
2023/01/31 10:52:42;;;;;;;;;;;;;;;17.10;40.16;100373.50;4959420;28;968;-62
2023/01/31 10:55:17;;;;;;;;;;;;;;;16.10;42.53;100361.69;4973926;28;2177;-59
2023/01/31 10:57:42;;;;;;;;;;;;;;;16.54;41.81;100365.63;4963307;28;1981;-61
2023/01/31 11:00:16;;;;;;;;;;;;;;;16.30;42.30;100373.69;4967299;28;1157;-60
2023/01/31 11:02:41;;;;;;;;;;;;;;;15.80;42.81;100366.19;4973383;28;1006;-58
2023/01/31 11:05:09;;;;;;;;;;;;;;;17.13;40.27;100371.28;4973419;28;1026;-51
2023/01/31 11:07:35;;;;;;;;;;;;;;;15.96;42.71;100371.63;4994159;28;1185;-53
2023/01/31 11:10:01;;;;;;;;;;;;;;;15.74;43.11;100359.88;4966754;28;1185;-54
2023/01/31 11:12:40;;;;;;;;;;;;;;;16.38;42.07;100371.19;4991566;28;1292;-55
2023/01/31 11:15:07;;;;;;;;;;;;;;;16.04;42.48;100374.59;4974601;28;1130;-56
2023/01/31 11:17:33;;;;;;;;;;;;;;;15.56;43.44;100371.44;4971096;28;1911;-58
2023/01/31 11:19:58;;;;;;;;;;;;;;;15.46;43.51;100368.69;4957113;28;1151;-62
2023/01/31 11:22:24;;;;;;;;;;;;;;;15.52;43.36;100370.34;4984495;28;1164;-55
2023/01/31 11:24:50;;;;;;;;;;;;;;;16.11;42.66;100370.75;4980879;28;2075;-51
2023/01/31 11:27:30;;;;;;;;;;;;;;;15.49;43.59;100365.41;4979386;28;1010;-51
2023/01/31 11:29:59;;;;;;;;;;;;;;;17.42;39.94;100369.38;4978860;28;1026;-51
2023/01/31 11:32:28;;;;;;;;;;;;;;;15.96;42.79;100372.44;4994020;28;1076;-55
2023/01/31 11:35:02;;;;;;;;;;;;;;;15.59;43.24;100364.56;4966348;28;1038;-54
2023/01/31 11:37:28;;;;;;;;;;;;;;;16.62;41.69;100370.53;4978995;28;1969;-53
2023/01/31 11:39:57;;;;;;;;;;;;;;;15.72;43.43;100363.97;4988062;28;1100;-58
2023/01/31 11:42:22;;;;;;;;;;;;;;;17.75;38.91;100371.53;4972289;28;1109;-56
2023/01/31 11:45:04;;;;;;;;;;;;;;;16.82;41.00;100376.97;4967310;28;954;-59
2023/01/31 11:47:42;;;;;;;;;;;;;;;16.00;42.53;100368.03;4979019;28;1022;-56
2023/01/31 11:50:17;;;;;;;;;;;;;;;16.30;42.24;100363.53;4993211;28;890;-58
2023/01/31 11:52:43;;;;;;;;;;;;;;;16.14;42.47;100367.44;4990063;28;1068;-56
2023/01/31 11:55:08;;;;;;;;;;;;;;;15.65;43.40;100367.00;4969511;28;2324;-57
2023/01/31 11:57:34;;;;;;;;;;;;;;;15.50;43.39;100376.09;4962119;28;1911;-52
2023/01/31 12:00:00;;;;;;;;;;;;;;;15.34;43.11;100374.47;4952227;28;919;-55
2023/01/31 12:02:38;;;;;;;;;;;;;;;16.69;41.55;100372.91;4980728;28;1173;-58
2023/01/31 12:05:07;;;;;;;;;;;;;;;15.66;43.12;100363.16;4973675;28;1108;-55
2023/01/31 12:07:43;;;;;;;;;;;;;;;15.36;43.92;100367.63;4952488;28;1045;-59
2023/01/31 12:10:27;;;;;;;;;;;;;;;15.97;42.88;100376.81;4961363;28;965;-57
2023/01/31 12:12:53;;;;;;;;;;;;;;;16.61;41.71;100368.88;4964160;28;1054;-58
2023/01/31 12:15:18;;;;;;;;;;;;;;;17.59;39.11;100370.88;4978142;28;1049;-57
2023/01/31 12:17:48;;;;;;;;;;;;;;;16.10;42.42;100377.34;4977923;28;1918;-54
2023/01/31 12:20:16;;;;;;;;;;;;;;;15.70;42.99;100372.47;4973453;28;1019;-53
2023/01/31 12:22:57;;;;;;;;;;;;;;;16.63;41.34;100374.88;4957567;28;1035;-59
2023/01/31 12:25:27;;;;;;;;;;;;;;;15.68;43.22;100366.47;4974750;28;2110;-58
2023/01/31 12:28:00;;;;;;;;;;;;;;;15.48;43.22;100382.94;4972854;28;998;-58
2023/01/31 12:30:44;;;;;;;;;;;;;;;16.13;42.65;100376.78;4961424;28;1090;-57
2023/01/31 12:33:16;;;;;;;;;;;;;;;15.84;43.06;100380.19;4964320;28;1109;-57
2023/01/31 12:36:00;;;;;;;;;;;;;;;15.32;43.78;100385.69;4953767;28;1055;-55
2023/01/31 12:38:31;;;;;;;;;;;;;;;16.75;41.22;100394.56;4964955;28;1130;-56
2023/01/31 12:40:56;;;;;;;;;;;;;;;15.70;43.16;100385.38;4992246;28;1089;-57
2023/01/31 12:43:35;;;;;;;;;;;;;;;17.49;39.78;100390.19;4975493;28;1143;-59
2023/01/31 12:46:02;;;;;;;;;;;;;;;16.98;40.67;100392.25;4978855;28;1077;-57
2023/01/31 12:48:43;;;;;;;;;;;;;;;16.01;42.79;100397.09;4958028;28;1197;-58
2023/01/31 12:51:14;;;;;;;;;;;;;;;15.63;43.27;100391.13;4957087;28;985;-57
2023/01/31 12:53:43;;;;;;;;;;;;;;;15.43;43.38;100399.38;4957477;28;1940;-58
2023/01/31 12:56:27;;;;;;;;;;;;;;;16.83;40.88;100395.06;4956490;29;1954;-52
2023/01/31 12:59:02;;;;;;;;;;;;;;;15.68;43.46;100399.38;4975604;28;1419;-55